createdAt,value
2019-03-28T00:05:44.764Z,25.92
2019-03-28T00:11:48.194Z,28.52
2019-03-28T00:17:51.068Z,29.80
2019-03-28T00:23:57.285Z,29.30
2019-03-28T00:30:00.550Z,25.45
2019-03-28T00:36:03.794Z,30.90
2019-03-28T00:42:10.675Z,26.48
2019-03-28T00:48:13.831Z,29.20
2019-03-28T00:54:21.829Z,22.37
2019-03-28T01:00:24.977Z,30.82
2019-03-28T01:06:28.460Z,25.12
2019-03-28T01:12:31.468Z,28.55
2019-03-28T01:18:34.633Z,32.73
2019-03-28T01:24:40.537Z,26.68
2019-03-28T01:30:43.555Z,25.02
2019-03-28T01:36:46.643Z,27.65
2019-03-28T01:42:51.343Z,24.80
2019-03-28T01:48:54.195Z,30.77
2019-03-28T01:54:57.389Z,26.82
2019-03-28T02:01:02.757Z,29.87
2019-03-28T02:07:13.991Z,31.73
2019-03-28T02:13:17.588Z,26.77
2019-03-28T02:19:20.708Z,24.98
2019-03-28T02:25:23.485Z,28.75
2019-03-28T02:31:27.554Z,29.02
2019-03-28T02:37:33.250Z,28.73
2019-03-28T02:43:38.684Z,26.52
2019-03-28T02:49:42.014Z,24.52
2019-03-28T02:55:49.674Z,25.52
2019-03-28T03:01:55.577Z,27.22
2019-03-28T03:07:58.577Z,24.77
2019-03-28T03:14:01.567Z,23.25
2019-03-28T03:20:05.037Z,30.27
2019-03-28T03:26:07.764Z,27.48
2019-03-28T03:32:10.969Z,30.32
2019-03-28T03:38:13.847Z,25.68
2019-03-28T03:44:17.957Z,31.80
2019-03-28T03:50:28.410Z,30.45
2019-03-28T03:56:32.960Z,36.03
2019-03-28T04:02:38.362Z,37.67
2019-03-28T04:08:41.216Z,39.35
2019-03-28T04:14:44.031Z,30.45
2019-03-28T04:20:47.954Z,35.17
2019-03-28T04:26:50.903Z,33.58
2019-03-28T04:32:53.954Z,28.07
2019-03-28T04:39:00.908Z,26.55
2019-03-28T04:45:01.388Z,28.62
2019-03-28T04:51:04.343Z,32.03
2019-03-28T04:57:12.802Z,31.95
2019-03-28T05:03:18.976Z,29.10
2019-03-28T05:09:21.887Z,32.55
2019-03-28T05:15:25.022Z,34.78
2019-03-28T05:21:30.283Z,33.55
2019-03-28T05:27:39.290Z,32.08
2019-03-28T05:33:42.444Z,30.27
2019-03-28T05:39:45.519Z,33.70
2019-03-28T05:45:49.960Z,33.25
2019-03-28T05:51:52.714Z,32.95
2019-03-28T05:57:55.933Z,28.10
2019-03-28T06:04:00.879Z,32.05
2019-03-28T06:10:04.931Z,26.45
2019-03-28T06:16:08.700Z,31.05
2019-03-28T06:22:18.224Z,30.15
2019-03-28T06:28:21.164Z,29.50
2019-03-28T06:34:24.531Z,30.32
2019-03-28T06:40:29.758Z,28.15
2019-03-28T06:46:34.424Z,34.43
2019-03-28T06:52:40.047Z,37.48
2019-03-28T06:58:46.239Z,33.20
2019-03-28T07:04:50.650Z,38.98
2019-03-28T07:10:59.263Z,36.90
2019-03-28T07:17:04.945Z,32.35
2019-03-28T07:23:14.532Z,26.35
2019-03-28T07:29:21.323Z,33.92
2019-03-28T07:35:37.806Z,30.08
2019-03-28T07:41:43.926Z,35.48
2019-03-28T07:47:56.997Z,33.13
2019-03-28T07:54:00.401Z,42.17
2019-03-28T08:00:10.843Z,38.15
2019-03-28T08:06:24.756Z,36.45
2019-03-28T08:12:28.274Z,34.88
2019-03-28T08:18:33.257Z,31.90
2019-03-28T08:24:38.744Z,31.62
2019-03-28T08:30:45.172Z,29.40
2019-03-28T08:36:50.841Z,32.95
2019-03-28T08:42:54.369Z,31.95
2019-03-28T08:49:04.366Z,28.80
2019-03-28T08:55:29.773Z,22.25
2019-03-28T09:01:40.193Z,27.05
2019-03-28T09:07:56.452Z,23.57
2019-03-28T09:14:06.341Z,23.07
2019-03-28T09:20:09.349Z,23.05
2019-03-28T09:26:15.815Z,22.05
2019-03-28T09:32:20.933Z,21.45
2019-03-28T09:38:24.206Z,22.90
2019-03-28T09:44:27.244Z,17.60
2019-03-28T09:50:34.239Z,15.48
2019-03-28T09:56:50.264Z,17.37
2019-03-28T10:02:57.707Z,15.38
2019-03-28T10:09:00.935Z,18.35
2019-03-28T10:15:07.909Z,17.40
2019-03-28T10:21:17.690Z,16.42
2019-03-28T10:27:21.464Z,17.87
2019-03-28T10:33:26.360Z,13.28
2019-03-28T10:39:29.869Z,15.43
2019-03-28T10:45:42.491Z,12.73
2019-03-28T10:51:49.082Z,10.58
2019-03-28T10:57:53.410Z,18.00
2019-03-28T11:03:59.902Z,13.35
2019-03-28T11:10:06.618Z,15.58
2019-03-28T11:16:14.799Z,13.48
2019-03-28T11:22:18.584Z,11.70
2019-03-28T11:28:26.052Z,13.62
2019-03-28T11:34:29.339Z,13.20
2019-03-28T11:40:33.153Z,11.75
2019-03-28T11:46:42.034Z,10.80
2019-03-28T11:52:48.239Z,11.95
2019-03-28T11:58:51.221Z,12.28
2019-03-28T12:04:56.532Z,10.35
2019-03-28T12:11:00.812Z,7.72
2019-03-28T12:17:04.701Z,9.13
2019-03-28T12:29:35.825Z,10.43
2019-03-28T12:35:44.824Z,8.83
2019-03-28T12:41:48.119Z,9.73
2019-03-28T12:47:54.978Z,9.80
2019-03-28T12:54:13.252Z,9.85
2019-03-28T13:00:34.181Z,8.90
2019-03-28T13:06:43.640Z,8.20
2019-03-28T13:19:14.945Z,9.18
2019-03-28T13:25:22.394Z,9.13
2019-03-28T13:31:32.240Z,9.13
2019-03-28T13:37:47.021Z,9.53
2019-03-28T13:43:52.353Z,8.43
2019-03-28T13:50:07.764Z,8.40
2019-03-28T13:56:19.964Z,7.30
2019-03-28T14:02:29.082Z,7.72
2019-03-28T14:08:37.604Z,7.40
2019-03-28T14:14:43.286Z,7.22
2019-03-28T14:20:46.854Z,10.08
2019-03-28T14:26:59.352Z,10.88
2019-03-28T14:33:11.072Z,11.45
2019-03-28T14:39:09.157Z,8.50
2019-03-28T14:45:12.143Z,8.08
2019-03-28T14:51:16.981Z,7.50
2019-03-28T14:57:21.019Z,7.20
2019-03-28T15:03:29.186Z,7.58
2019-03-28T15:09:34.238Z,7.47
2019-03-28T15:22:09.798Z,7.10
2019-03-28T15:28:19.168Z,9.43
2019-03-28T16:08:10.041Z,9.80
2019-03-28T16:14:15.298Z,7.65
2019-03-28T16:20:18.935Z,9.05
2019-03-28T16:26:21.890Z,8.53
2019-03-28T16:32:25.082Z,8.43
2019-03-28T16:38:28.545Z,11.95
2019-03-28T16:44:33.100Z,11.48
2019-03-28T16:50:36.964Z,12.00
2019-03-28T16:56:40.119Z,9.83
2019-03-28T17:02:43.203Z,8.90
2019-03-28T17:08:47.687Z,9.60
2019-03-28T17:14:51.738Z,9.00
2019-03-28T17:20:54.955Z,9.53
2019-03-28T17:26:58.230Z,10.05
2019-03-28T17:33:01.768Z,11.90
2019-03-28T17:39:07.170Z,11.33
2019-03-28T17:45:10.176Z,11.50
2019-03-28T17:51:12.949Z,13.10
2019-03-28T17:57:16.935Z,10.55
2019-03-28T18:03:31.065Z,10.03
2019-03-28T18:09:26.980Z,12.90
2019-03-28T18:15:30.129Z,11.65
2019-03-28T18:21:35.671Z,10.58
2019-03-28T18:27:39.185Z,13.10
2019-03-28T18:33:44.008Z,12.68
2019-03-28T18:39:47.332Z,11.78
2019-03-28T18:45:51.010Z,11.65
2019-03-28T18:51:56.616Z,58.23
2019-03-28T18:58:00.676Z,22.65
2019-03-28T19:04:03.722Z,10.58
2019-03-28T19:10:08.366Z,10.80
2019-03-28T19:16:11.449Z,10.90
2019-03-28T19:22:14.671Z,10.13
2019-03-28T19:28:28.745Z,12.45
2019-03-28T19:34:26.092Z,11.68
2019-03-28T19:40:29.138Z,13.18
2019-03-28T19:46:32.102Z,11.85
2019-03-28T19:52:36.849Z,10.08
2019-03-28T19:58:42.393Z,11.57
2019-03-28T20:04:48.332Z,9.35
2019-03-28T20:10:51.903Z,13.22
2019-03-28T20:16:55.270Z,14.38
2019-03-28T20:22:58.383Z,11.65
2019-03-28T20:29:04.313Z,10.88
2019-03-28T20:35:10.490Z,11.25
2019-03-28T20:41:13.927Z,22.30
2019-03-28T20:47:20.674Z,16.90
2019-03-28T20:53:24.315Z,10.63
2019-03-28T20:59:28.134Z,9.45
2019-03-28T21:05:31.904Z,19.92
2019-03-28T21:11:34.965Z,12.25
2019-03-28T21:17:40.710Z,11.12
2019-03-28T21:23:44.642Z,12.03
2019-03-28T21:29:50.306Z,11.93
2019-03-28T21:35:56.017Z,11.97
2019-03-28T21:42:00.183Z,13.43
2019-03-28T21:48:06.632Z,11.85
2019-03-28T21:54:10.963Z,12.23
2019-03-28T22:00:15.342Z,11.53
2019-03-28T22:06:18.807Z,11.50
2019-03-28T22:12:25.614Z,11.97
2019-03-28T22:18:29.733Z,11.55
2019-03-28T22:24:34.390Z,12.47
2019-03-28T22:30:40.846Z,13.45
2019-03-28T22:36:57.044Z,11.25
2019-03-28T22:42:53.152Z,10.08
2019-03-28T22:48:57.101Z,14.13
2019-03-28T22:55:11.928Z,10.75
2019-03-28T23:01:15.877Z,17.15
2019-03-28T23:07:19.489Z,15.40
2019-03-28T23:13:23.283Z,11.63
2019-03-28T23:19:26.249Z,14.98
2019-03-28T23:25:29.267Z,15.83
2019-03-28T23:31:32.196Z,14.38
2019-03-28T23:37:45.479Z,15.25
2019-03-28T23:43:50.626Z,14.18
2019-03-28T23:49:56.733Z,12.60
2019-03-28T23:56:03.324Z,11.60
